Flight Track Log - Related Links

Times and Time Zones

All times are in EDT time to prevent confusion due to time zone crossing. See the WIG283 flight status page for this flight to view local times or setup timezone preferences in your user account.

Time Position Orientation Groundspeed Altitude Reporting Facility
EDT Latitude Longitude Course Direction KTS MPH feet Rate Location/Type
Fri 12:42:55 PM 42.3667 -71.0000 233° Southwest 69 79 400  Level KA90
Fri 12:44:13 PM 42.3475 -71.0350 233° Southwest 83 96 1,400 906 Climbing Boston Center
Fri 12:45:14 PM 42.3331 -71.0647 237° Southwest 91 105 2,500 1,033 Climbing Boston Center
Fri 12:46:15 PM 42.3267 -71.0986 256° West 92 106 3,500 1,033 Climbing Boston Center
Fri 12:47:16 PM 42.3189 -71.1300 251° West 90 104 4,600 1,033 Climbing Boston Center
Fri 12:48:17 PM 42.3117 -71.1644 254° West 88 101 5,600 683 Climbing Boston Center
Fri 12:49:19 PM 42.3039 -71.1972 252° West 92 106 6,000 195 Climbing Boston Center
Fri 12:50:20 PM 42.2942 -71.2417 254° West 123 142 6,000 51 Level Boston Center
Fri 12:51:17 PM 42.2839 -71.2847 252° West 132 152 6,100 -64 Climbing Boston Center
Fri 12:51:54 PM 42.2761 -71.3139 250° West 129 148 5,900 -185 Descending Boston Center
Fri 12:52:22 PM 42.2708 -71.3367 253° West 128 147 5,900 98 Level Boston Center
Fri 12:52:55 PM 42.2631 -71.3614 247° West 124 143 6,000 98 Climbing Boston Center
Fri 12:53:23 PM 42.2597 -71.3794 256° West 126 145 6,000  Level Boston Center
Fri 12:54:01 PM 42.2519 -71.4097 251° West 123 142 6,000  Level Boston Center
Fri 12:54:25 PM 42.2489 -71.4247 255° West 125 144 6,000  Level Boston Center
Fri 12:55:02 PM 42.2431 -71.4561 256° West 130 150 6,000  Level Boston Center
Fri 12:55:26 PM 42.2394 -71.4731 254° West 131 151 6,000  Level Boston Center
Fri 12:56:09 PM 42.2308 -71.5097 252° West 132 152 6,000  Level Boston Center
Fri 12:56:27 PM 42.2269 -71.5222 247° West 130 150 6,000  Level Boston Center
Fri 12:57:16 PM 42.2172 -71.5600 251° West 133 153 6,000  Level Boston Center
Fri 12:57:28 PM 42.2167 -71.5697 266° West 131 151 6,000  Level Boston Center
Fri 12:58:05 PM 42.2075 -71.6000 248° West 133 153 6,000  Level Boston Center
Fri 12:58:29 PM 42.2047 -71.6175 258° West 132 152 6,000  Level Boston Center
Fri 12:59:05 PM 42.1961 -71.6483 249° West 132 152 6,000  Level Boston Center
Fri 12:59:31 PM 42.1919 -71.6664 253° West 131 151 6,000  Level Boston Center
Fri 01:00:06 PM 42.1853 -71.6936 252° West 132 152 6,000  Level Boston Center
Fri 01:00:32 PM 42.1800 -71.7150 252° West 134 154 6,000  Level Boston Center
Fri 01:01:13 PM 42.1725 -71.7500 254° West 139 160 6,000  Level Boston Center
Fri 01:01:33 PM 42.1694 -71.7644 254° West 135 155 6,000 -98 Level Boston Center
Fri 01:02:14 PM 42.1611 -71.7981 252° West 139 160 5,900  Descending Boston Center
Fri 01:02:34 PM 42.1575 -71.8131 252° West 137 158 6,000 109 Climbing Boston Center
Fri 01:03:09 PM 42.1503 -71.8436 252° West 133 153 6,000  Level Boston Center
Fri 01:03:35 PM 42.1444 -71.8642 249° West 137 158 6,000  Level Boston Center
Fri 01:04:16 PM 42.1358 -71.8964 250° West 139 160 6,000 -97 Level Boston Center
Fri 01:04:37 PM 42.1303 -71.9128 245° Southwest 137 158 5,900 -98 Descending Boston Center
Fri 01:05:17 PM 42.1178 -71.9450 242° Southwest 138 159 5,900  Level Boston Center
Fri 01:05:38 PM 42.1089 -71.9572 226° Southwest 136 157 5,900  Level Boston Center
Fri 01:06:17 PM 42.0900 -71.9786 220° Southwest 142 163 5,900  Level Boston Center
Fri 01:06:39 PM 42.0783 -71.9908 218° Southwest 140 161 5,900 98 Level Boston Center
Fri 01:07:18 PM 42.0594 -72.0144 223° Southwest 140 161 6,000 194 Climbing Boston Center
Fri 01:07:41 PM 42.0492 -72.0253 218° Southwest 140 161 6,100  Climbing Boston Center
Fri 01:08:19 PM 42.0314 -72.0478 223° Southwest 142 163 6,000  Descending Boston Center
Fri 01:08:42 PM 42.0192 -72.0653 227° Southwest 140 161 6,100  Climbing Boston Center
Fri 01:09:20 PM 41.9997 -72.0889 222° Southwest 142 163 6,000  Descending Boston Center
Fri 01:09:43 PM 41.9906 -72.1025 228° Southwest 141 162 6,100  Climbing Boston Center
Fri 01:10:21 PM 41.9731 -72.1258 225° Southwest 147 169 6,000  Descending Boston Center
Fri 01:10:45 PM 41.9617 -72.1392 221° Southwest 144 166 6,100  Climbing Boston Center
Fri 01:11:22 PM 41.9444 -72.1619 225° Southwest 140 161 6,000  Descending Boston Center
Fri 01:11:46 PM 41.9333 -72.1775 226° Southwest 143 165 6,100  Climbing Boston Center
Fri 01:12:22 PM 41.9153 -72.2008 224° Southwest 143 165 6,000  Descending Boston Center
Fri 01:12:47 PM 41.9022 -72.2158 221° Southwest 143 165 6,100  Climbing Boston Center
Fri 01:13:23 PM 41.8847 -72.2361 221° Southwest 143 165 6,000  Descending Boston Center
Fri 01:13:49 PM 41.8733 -72.2514 225° Southwest 143 165 6,100  Climbing Boston Center
Fri 01:14:24 PM 41.8556 -72.2750 225° Southwest 138 159 6,000 -98 Descending Boston Center
Fri 01:14:50 PM 41.8461 -72.2889 228° Southwest 142 163 6,000 -90 Level Boston Center
Fri 01:15:31 PM 41.8244 -72.3128 219° Southwest 146 168 5,900  Descending Boston Center
Fri 01:15:52 PM 41.8153 -72.3250 225° Southwest 143 165 6,000  Climbing Boston Center
Fri 01:16:32 PM 41.7958 -72.3489 222° Southwest 138 159 5,900 -98 Descending Boston Center
Fri 01:16:53 PM 41.7850 -72.3639 226° Southwest 143 165 5,900  Level Boston Center
Fri 01:17:27 PM 41.7697 -72.3828 223° Southwest 140 161 5,900 98 Level Boston Center
Fri 01:17:54 PM 41.7569 -72.3994 224° Southwest 142 163 6,000 98 Climbing Boston Center
Fri 01:18:28 PM 41.7408 -72.4189 222° Southwest 141 162 6,000 -97 Level Boston Center
Fri 01:18:56 PM 41.7283 -72.4367 227° Southwest 142 163 5,900  Descending Boston Center
Fri 01:19:57 PM 41.6997 -72.4728 223° Southwest 142 163 6,000  Climbing Boston Center
Fri 01:20:17 PM 41.6886 -72.4867 223° Southwest 141 162 5,900  Descending Boston Center
Fri 01:20:59 PM 41.6692 -72.5117 224° Southwest 142 163 6,000 90 Climbing Boston Center
Fri 01:21:24 PM 41.6569 -72.5272 224° Southwest 140 161 6,000  Level Boston Center
Fri 01:22:00 PM 41.6408 -72.5475 223° Southwest 141 162 6,000 -98 Level Boston Center
Fri 01:22:25 PM 41.6281 -72.5631 222° Southwest 142 163 5,900  Descending Boston Center
Fri 01:23:01 PM 41.6117 -72.5828 222° Southwest 142 163 6,000 98 Climbing Boston Center
Fri 01:23:26 PM 41.5975 -72.5981 219° Southwest 142 163 6,000 -97 Level Boston Center
Fri 01:24:03 PM 41.5789 -72.6217 224° Southwest 143 165 5,900  Descending Boston Center
Fri 01:25:04 PM 41.5511 -72.6575 224° Southwest 143 165 6,000 49 Climbing Boston Center
Fri 01:26:06 PM 41.5211 -72.6933 222° Southwest 144 166 6,000 -49 Level Boston Center
Fri 01:27:07 PM 41.4908 -72.7292 222° Southwest 144 166 5,900  Descending Boston Center
Fri 01:28:08 PM 41.4583 -72.7678 222° Southwest 144 166 6,000 49 Climbing Boston Center
Fri 01:29:10 PM 41.4292 -72.8031 222° Southwest 144 166 6,000 -49 Level Boston Center
Fri 01:30:11 PM 41.3986 -72.8394 222° Southwest 144 166 5,900 -49 Descending Boston Center
Fri 01:31:13 PM 41.3836 -72.8911 249° West 144 166 5,900 49 Level Boston Center
Fri 01:32:14 PM 41.3772 -72.9419 261° West 143 165 6,000 49 Climbing Boston Center
Fri 01:33:15 PM 41.3706 -72.9922 260° West 140 161 6,000  Level Boston Center
Fri 01:34:17 PM 41.3631 -73.0425 259° West 139 160 6,000  Level Boston Center
Fri 01:35:18 PM 41.3539 -73.0967 257° West 140 161 6,000 -49 Level Boston Center
Fri 01:36:19 PM 41.3458 -73.1478 258° West 140 161 5,900  Descending Boston Center
Fri 01:37:21 PM 41.3394 -73.1981 260° West 138 159 6,000  Climbing Boston Center
Fri 01:38:22 PM 41.3303 -73.2497 257° West 143 165 5,900 -197 Descending Boston Center
Fri 01:39:23 PM 41.3233 -73.3064 261° West 143 165 5,600 -390 Descending Boston Center
Fri 01:40:25 PM 41.3183 -73.3572 263° West 144 166 5,100 -293 Descending Boston Center
Fri 01:41:26 PM 41.3081 -73.4125 256° West 144 166 5,000 -49 Descending Boston Center
Fri 01:42:27 PM 41.2992 -73.4611 256° West 137 158 5,000  Level Boston Center
Fri 01:43:29 PM 41.2897 -73.5117 256° West 138 159 5,000  Level Boston Center
Fri 01:44:30 PM 41.2819 -73.5625 259° West 139 160 5,000  Level Boston Center
Fri 01:45:31 PM 41.2758 -73.6164 261° West 139 160 5,000 52 Level Boston Center
Fri 01:46:25 PM 41.2667 -73.6667 256° West 134 154 5,100 53 Climbing New York TRACON
Fri 01:47:25 PM 41.2667 -73.7167 270° West 140 161 5,100  Level New York TRACON
Fri 01:48:25 PM 41.2667 -73.7667 270° West 139 160 5,100  Level New York TRACON
Fri 01:49:25 PM 41.2667 -73.8167 270° West 134 154 5,100  Level New York TRACON
Fri 01:50:25 PM 41.2500 -73.8667 246° West 137 158 5,100  Level New York TRACON
Fri 01:51:25 PM 41.2500 -73.9167 270° West 140 161 5,100  Level New York TRACON
Fri 01:52:25 PM 41.2500 -73.9667 270° West 137 158 5,100  Level New York TRACON
Fri 01:53:25 PM 41.2333 -74.0167 246° West 135 155 5,100  Level New York TRACON
Fri 01:54:25 PM 41.2333 -74.0667 270° West 137 158 5,100  Level New York TRACON
Fri 01:55:19 PM 41.2333 -74.1000 270° West 152 175 5,100  Level New York TRACON
Fri 01:56:19 PM 41.2333 -74.1500 270° West 138 159 5,100  Level New York TRACON
Fri 01:57:19 PM 41.2000 -74.1833 217° Southwest 144 166 5,100  Level New York TRACON
Fri 01:58:19 PM 41.1667 -74.1833 180° South 163 188 5,100  Level New York TRACON
Fri 01:59:19 PM 41.1167 -74.1833 180° South 156 180 5,100  Level New York TRACON
Fri 02:00:25 PM 41.0667 -74.1667 166° South 165 190 5,100  Level New York TRACON
Fri 02:01:19 PM 41.0333 -74.1500 159° South 166 191 5,100 -211 Level New York TRACON
Fri 02:02:19 PM 40.9833 -74.1167 153° Southeast 172 198 4,700 -450 Descending New York TRACON
Fri 02:03:19 PM 40.9500 -74.1000 159° South 168 193 4,200 -650 Descending New York TRACON
Fri 02:04:19 PM 40.9000 -74.0833 166° South 173 199 3,400 -750 Descending New York TRACON
Fri 02:05:19 PM 40.8500 -74.0833 180° South 161 185 2,700 -400 Descending New York TRACON
Fri 02:06:19 PM 40.8167 -74.0833 180° South 147 169 2,600 -350 Descending New York TRACON
Fri 02:07:19 PM 40.7667 -74.0833 180° South 163 188 2,000 -700 Descending New York TRACON
Fri 02:08:19 PM 40.7167 -74.1000 194° South 159 183 1,200 -762 Descending New York TRACON
Fri 02:09:25 PM 40.7000 -74.1333 237° Southwest 145 167 400 -727 Descending New York TRACON
Fri 02:11:00 PM 40.6833 -74.1667 191° South  Level FlightAware Approximate
Fri 02:18:00 PM 40.6925 -74.1687 191° South  Level Estimated

Login

Don't have an account? Register now (free) for customized features, flight alerts, and more!